createdAt,value
2019-05-03T00:01:46.213Z,22.60
2019-05-03T00:04:14.066Z,22.60
2019-05-03T00:06:40.008Z,22.60
2019-05-03T00:09:07.455Z,22.60
2019-05-03T00:11:33.396Z,22.60
2019-05-03T00:13:59.360Z,22.60
2019-05-03T00:16:32.772Z,22.60
2019-05-03T00:19:00.961Z,22.50
2019-05-03T00:21:26.569Z,22.50
2019-05-03T00:23:52.540Z,22.50
2019-05-03T00:26:18.561Z,22.50
2019-05-03T00:28:44.499Z,22.50
2019-05-03T00:31:12.365Z,22.50
2019-05-03T00:33:38.900Z,22.50
2019-05-03T00:36:18.306Z,22.50
2019-05-03T00:38:44.357Z,22.50
2019-05-03T00:41:12.069Z,22.50
2019-05-03T00:43:38.279Z,22.50
2019-05-03T00:46:04.235Z,22.50
2019-05-03T00:48:30.208Z,22.50
2019-05-03T00:50:56.156Z,22.50
2019-05-03T00:53:22.506Z,22.50
2019-05-03T00:55:48.540Z,22.50
2019-05-03T00:58:14.518Z,22.50
2019-05-03T01:00:41.740Z,22.50
2019-05-03T01:03:07.836Z,22.50
2019-05-03T01:05:33.892Z,22.50
2019-05-03T01:08:01.846Z,22.50
2019-05-03T01:10:27.673Z,22.50
2019-05-03T01:12:53.605Z,22.50
2019-05-03T01:15:24.117Z,22.50
2019-05-03T01:17:50.075Z,22.40
2019-05-03T01:20:16.031Z,22.50
2019-05-03T01:22:42.497Z,22.40
2019-05-03T01:25:08.530Z,22.50
2019-05-03T01:27:34.496Z,22.40
2019-05-03T01:30:02.613Z,22.40
2019-05-03T01:32:30.427Z,22.40
2019-05-03T01:34:56.407Z,22.40
2019-05-03T01:37:22.770Z,22.40
2019-05-03T01:39:48.801Z,22.40
2019-05-03T01:42:14.962Z,22.40
2019-05-03T01:44:42.611Z,22.40
2019-05-03T01:47:13.594Z,22.40
2019-05-03T01:49:47.429Z,22.40
2019-05-03T01:52:24.312Z,22.40
2019-05-03T01:54:52.073Z,22.40
2019-05-03T01:57:18.135Z,22.40
2019-05-03T01:59:44.063Z,22.40
2019-05-03T02:02:29.659Z,22.40
2019-05-03T02:04:57.516Z,22.40
2019-05-03T02:07:23.454Z,22.40
2019-05-03T02:09:49.512Z,22.40
2019-05-03T02:12:15.619Z,22.40
2019-05-03T02:14:42.257Z,22.40
2019-05-03T02:17:08.317Z,22.30
2019-05-03T02:19:34.277Z,22.40
2019-05-03T02:22:00.257Z,22.40
2019-05-03T02:24:26.215Z,22.40
2019-05-03T02:26:52.927Z,22.40
2019-05-03T02:29:19.013Z,22.40
2019-05-03T02:31:44.966Z,22.40
2019-05-03T02:34:12.563Z,22.40
2019-05-03T02:36:38.756Z,22.40
2019-05-03T02:39:05.704Z,22.40
2019-05-03T02:41:31.641Z,22.40
2019-05-03T02:43:58.881Z,22.40
2019-05-03T02:46:45.379Z,22.40
2019-05-03T02:49:16.130Z,22.40
2019-05-03T02:51:42.074Z,22.40
2019-05-03T02:54:08.013Z,22.40
2019-05-03T02:56:35.723Z,22.40
2019-05-03T02:59:01.798Z,22.40
2019-05-03T03:01:27.763Z,22.40
2019-05-03T03:03:56.054Z,22.40
2019-05-03T03:06:21.538Z,22.40
2019-05-03T03:08:47.786Z,22.40
2019-05-03T03:11:15.561Z,22.40
2019-05-03T03:13:41.586Z,22.40
2019-05-03T03:16:07.526Z,22.40
2019-05-03T03:18:36.157Z,22.40
2019-05-03T03:21:01.455Z,22.40
2019-05-03T03:23:27.432Z,22.40
2019-05-03T03:25:55.657Z,22.40
2019-05-03T03:28:21.339Z,22.40
2019-05-03T03:30:48.737Z,22.40
2019-05-03T03:33:17.569Z,22.40
2019-05-03T03:35:42.798Z,22.40
2019-05-03T03:38:08.759Z,22.40
2019-05-03T03:40:35.814Z,22.40
2019-05-03T03:43:01.953Z,22.40
2019-05-03T03:45:27.994Z,22.40
2019-05-03T03:47:56.422Z,22.40
2019-05-03T03:50:21.784Z,22.40
2019-05-03T03:52:47.745Z,22.40
2019-05-03T03:55:15.940Z,22.40
2019-05-03T03:57:41.663Z,22.30
2019-05-03T04:00:07.718Z,22.30
2019-05-03T04:02:35.442Z,22.40
2019-05-03T04:05:05.549Z,22.40
2019-05-03T04:07:31.703Z,22.40
2019-05-03T04:09:57.673Z,22.40
2019-05-03T04:12:26.476Z,22.40
2019-05-03T04:14:56.041Z,22.30
2019-05-03T04:17:39.687Z,22.30
2019-05-03T04:20:06.038Z,22.40
2019-05-03T04:22:31.966Z,22.40
2019-05-03T04:24:57.927Z,22.40
2019-05-03T04:27:27.195Z,22.40
2019-05-03T04:29:51.733Z,22.50
2019-05-03T04:32:19.428Z,22.50
2019-05-03T04:34:45.671Z,22.50
2019-05-03T04:37:11.728Z,22.50
2019-05-03T04:39:37.685Z,22.50
2019-05-03T04:42:06.360Z,22.50
2019-05-03T04:44:31.583Z,22.60
2019-05-03T04:46:58.451Z,22.60
2019-05-03T04:49:26.232Z,22.60
2019-05-03T04:51:52.394Z,22.60
2019-05-03T04:54:25.316Z,22.60
2019-05-03T04:56:51.132Z,22.70
2019-05-03T04:59:17.226Z,22.70
2019-05-03T05:01:45.861Z,22.70
2019-05-03T05:04:11.109Z,22.70
2019-05-03T05:06:37.069Z,22.80
2019-05-03T05:09:05.027Z,22.80
2019-05-03T05:11:31.083Z,22.80
2019-05-03T05:13:57.047Z,22.80
2019-05-03T05:16:25.162Z,22.80
2019-05-03T05:19:07.949Z,22.80
2019-05-03T05:21:35.894Z,22.80
2019-05-03T05:24:05.490Z,22.90
2019-05-03T05:26:42.050Z,22.90
2019-05-03T05:29:09.909Z,22.80
2019-05-03T05:31:35.851Z,22.90
2019-05-03T05:34:01.785Z,22.90
2019-05-03T05:36:27.753Z,22.90
2019-05-03T05:38:55.243Z,22.90
2019-05-03T05:41:21.269Z,23.00
2019-05-03T05:43:47.234Z,23.00
2019-05-03T05:46:14.641Z,23.00
2019-05-03T05:48:51.318Z,23.10
2019-05-03T05:51:17.280Z,23.00
2019-05-03T05:53:44.726Z,23.00
2019-05-03T05:56:25.134Z,23.00
2019-05-03T05:58:55.680Z,23.00
2019-05-03T06:01:25.020Z,23.00
2019-05-03T06:03:51.108Z,22.90
2019-05-03T06:06:21.686Z,23.00
2019-05-03T06:08:55.160Z,23.00
2019-05-03T06:11:39.229Z,23.00
2019-05-03T06:14:07.202Z,23.00
2019-05-03T06:16:37.987Z,23.00
2019-05-03T06:19:17.584Z,23.10
2019-05-03T06:21:51.265Z,23.10
2019-05-03T06:24:27.700Z,23.10
2019-05-03T06:26:55.651Z,23.10
2019-05-03T06:29:21.680Z,23.10
2019-05-03T06:31:52.286Z,23.20
2019-05-03T06:34:18.258Z,23.20
2019-05-03T06:36:46.204Z,23.20
2019-05-03T06:39:12.163Z,23.20
2019-05-03T06:41:38.111Z,23.20
2019-05-03T06:44:04.420Z,23.20
2019-05-03T06:46:45.573Z,23.20
2019-05-03T06:49:11.811Z,23.20
2019-05-03T06:51:40.079Z,23.20
2019-05-03T06:54:05.720Z,23.10
2019-05-03T06:56:31.676Z,23.10
2019-05-03T06:58:57.779Z,23.10
2019-05-03T07:01:25.648Z,23.10
2019-05-03T07:04:02.381Z,23.10
2019-05-03T07:06:37.367Z,23.10
2019-05-03T07:08:59.983Z,23.10
2019-05-03T07:11:26.045Z,23.10
2019-05-03T07:13:51.995Z,23.10
2019-05-03T07:16:17.976Z,23.20
2019-05-03T07:18:45.510Z,23.20
2019-05-03T07:21:12.423Z,23.20
2019-05-03T07:23:38.375Z,23.20
2019-05-03T07:26:05.401Z,23.20
2019-05-03T07:28:44.467Z,23.20
2019-05-03T07:30:59.399Z,23.20
2019-05-03T07:33:29.555Z,23.20
2019-05-03T07:35:55.524Z,23.20
2019-05-03T07:38:21.551Z,23.10
2019-05-03T07:40:47.492Z,23.20
2019-05-03T07:43:14.859Z,23.20
2019-05-03T07:45:41.003Z,23.10
2019-05-03T07:48:06.946Z,23.20
2019-05-03T07:50:33.268Z,23.20
2019-05-03T07:52:59.865Z,23.20
2019-05-03T07:55:27.739Z,23.20
2019-05-03T07:57:55.705Z,23.20
2019-05-03T08:00:25.376Z,23.20
2019-05-03T08:02:51.559Z,23.20
2019-05-03T08:05:17.701Z,23.30
2019-05-03T08:07:44.465Z,23.20
2019-05-03T08:10:11.551Z,23.30
2019-05-03T08:12:37.605Z,23.30
2019-05-03T08:15:05.352Z,23.30
2019-05-03T08:17:31.428Z,23.30
2019-05-03T08:19:57.377Z,23.30
2019-05-03T08:22:25.440Z,23.30
2019-05-03T08:24:51.441Z,23.40
2019-05-03T08:27:17.391Z,23.40
2019-05-03T08:29:45.291Z,23.40
2019-05-03T08:32:30.676Z,23.40
2019-05-03T08:35:16.673Z,23.40
2019-05-03T08:37:47.764Z,23.50
2019-05-03T08:40:15.615Z,23.40
2019-05-03T08:42:41.688Z,23.50
2019-05-03T08:45:08.122Z,23.50
2019-05-03T08:47:34.519Z,23.50
2019-05-03T08:50:00.819Z,23.60
2019-05-03T08:52:27.269Z,23.60
2019-05-03T08:54:55.445Z,23.60
2019-05-03T08:57:21.489Z,23.60
2019-05-03T08:59:47.532Z,23.60
2019-05-03T09:02:16.506Z,23.50
2019-05-03T09:04:43.173Z,23.50
2019-05-03T09:07:09.209Z,23.50
2019-05-03T09:09:37.070Z,23.40
2019-05-03T09:12:04.739Z,23.50
2019-05-03T09:14:41.424Z,23.50
2019-05-03T09:16:59.329Z,23.40
2019-05-03T09:19:25.451Z,23.40
2019-05-03T09:21:51.515Z,23.40
2019-05-03T09:24:17.466Z,23.40
2019-05-03T09:26:44.906Z,23.40
2019-05-03T09:29:11.074Z,23.40
2019-05-03T09:31:37.010Z,23.40
2019-05-03T09:34:07.493Z,23.30
2019-05-03T09:36:30.868Z,23.30
2019-05-03T09:38:56.818Z,23.30
2019-05-03T09:41:22.752Z,23.30
2019-05-03T09:43:48.714Z,23.30
2019-05-03T09:46:14.810Z,23.30
2019-05-03T09:48:40.862Z,23.30
2019-05-03T09:51:06.927Z,23.30
2019-05-03T09:53:46.600Z,23.20
2019-05-03T09:56:12.545Z,23.20
2019-05-03T09:58:38.524Z,23.20
2019-05-03T10:01:06.199Z,23.20
2019-05-03T10:03:32.406Z,23.20
2019-05-03T10:05:58.352Z,23.20
2019-05-03T10:08:25.433Z,23.20
2019-05-03T10:11:02.410Z,23.20
2019-05-03T10:13:28.476Z,23.30
2019-05-03T10:15:54.993Z,23.20
2019-05-03T10:18:21.078Z,23.20
2019-05-03T10:20:47.019Z,23.30
2019-05-03T10:23:24.793Z,23.30
2019-05-03T10:25:50.852Z,23.30
2019-05-03T10:28:16.801Z,23.30
2019-05-03T10:30:44.936Z,23.30
2019-05-03T10:33:15.592Z,23.30
2019-05-03T10:35:41.670Z,23.30
2019-05-03T10:38:07.647Z,23.40
2019-05-03T10:40:35.565Z,23.30
2019-05-03T10:43:01.540Z,23.40
2019-05-03T10:45:28.101Z,23.40
2019-05-03T10:47:54.278Z,23.40
2019-05-03T10:50:20.234Z,23.30
2019-05-03T10:52:48.092Z,23.30
2019-05-03T10:55:15.934Z,23.40
2019-05-03T10:57:44.978Z,23.30
2019-05-03T11:00:39.345Z,23.30
2019-05-03T11:02:41.235Z,23.30
2019-05-03T11:05:07.189Z,23.30
2019-05-03T11:07:34.551Z,23.30
2019-05-03T11:10:00.710Z,23.20
2019-05-03T11:12:31.661Z,23.20
2019-05-03T11:14:57.620Z,23.30
2019-05-03T11:17:25.489Z,23.30
2019-05-03T11:19:51.439Z,23.20
2019-05-03T11:22:19.312Z,23.20
2019-05-03T11:24:45.594Z,23.20
2019-05-03T11:27:16.403Z,23.10
2019-05-03T11:29:42.367Z,23.10
2019-05-03T11:32:19.335Z,23.10
2019-05-03T11:35:04.572Z,23.10
2019-05-03T11:37:38.395Z,23.10
2019-05-03T11:40:05.099Z,23.10
2019-05-03T11:42:35.326Z,23.10
2019-05-03T11:45:01.455Z,23.10
2019-05-03T11:47:27.745Z,23.10
2019-05-03T11:49:54.646Z,23.00
2019-05-03T11:52:20.825Z,23.00
2019-05-03T11:54:46.867Z,23.00
2019-05-03T11:57:15.760Z,23.00
2019-05-03T11:59:41.871Z,22.90
2019-05-03T12:02:25.859Z,22.90
2019-05-03T12:04:52.049Z,23.00
2019-05-03T12:07:39.433Z,23.00
2019-05-03T12:10:13.343Z,22.90
2019-05-03T12:12:35.248Z,23.00
2019-05-03T12:15:01.291Z,23.00
2019-05-03T12:17:30.020Z,23.00
2019-05-03T12:19:58.085Z,23.00
2019-05-03T12:22:26.062Z,22.90
2019-05-03T12:24:52.479Z,22.90
2019-05-03T12:27:18.857Z,22.90
2019-05-03T12:29:44.870Z,22.90
2019-05-03T12:32:10.991Z,23.00
2019-05-03T12:34:36.943Z,23.00
2019-05-03T12:37:04.968Z,23.00
2019-05-03T12:39:30.914Z,23.00
2019-05-03T12:41:56.861Z,23.00
2019-05-03T12:44:24.694Z,23.00
2019-05-03T12:46:50.696Z,23.00
2019-05-03T12:49:16.664Z,23.00
2019-05-03T12:51:42.626Z,23.00
2019-05-03T12:54:08.593Z,23.00
2019-05-03T12:56:35.835Z,23.00
2019-05-03T12:59:06.377Z,23.00
2019-05-03T13:01:41.635Z,23.10
2019-05-03T13:04:09.936Z,23.10
2019-05-03T13:06:37.887Z,23.10
2019-05-03T13:09:05.577Z,23.10
2019-05-03T13:11:34.729Z,23.10
2019-05-03T13:14:01.069Z,23.10
2019-05-03T13:16:27.137Z,23.10
2019-05-03T13:18:55.163Z,23.00
2019-05-03T13:21:20.993Z,23.10
2019-05-03T13:23:46.936Z,23.10
2019-05-03T13:26:14.859Z,23.10
2019-05-03T13:28:40.752Z,23.10
2019-05-03T13:31:06.721Z,23.00
2019-05-03T13:33:34.608Z,23.10
2019-05-03T13:36:00.627Z,23.10
2019-05-03T13:38:26.584Z,23.10
2019-05-03T13:40:54.327Z,23.10
2019-05-03T13:43:20.468Z,23.10
2019-05-03T13:45:46.398Z,23.20
2019-05-03T13:48:12.417Z,23.20
2019-05-03T13:50:38.409Z,23.20
2019-05-03T13:53:04.902Z,23.20
2019-05-03T13:55:31.000Z,23.20
2019-05-03T13:57:56.980Z,23.30
2019-05-03T14:00:24.689Z,23.30
2019-05-03T14:02:50.792Z,23.20
2019-05-03T14:05:16.810Z,23.20
2019-05-03T14:07:44.567Z,23.20
2019-05-03T14:10:10.626Z,23.20
2019-05-03T14:12:36.665Z,23.20
2019-05-03T14:15:02.715Z,23.20
2019-05-03T14:17:28.779Z,23.20
2019-05-03T14:19:56.742Z,23.20
2019-05-03T14:22:24.916Z,23.20
2019-05-03T14:24:50.888Z,23.20
2019-05-03T14:27:17.246Z,23.30
2019-05-03T14:29:45.349Z,23.30
2019-05-03T14:32:11.169Z,23.30
2019-05-03T14:34:37.252Z,23.30
2019-05-03T14:37:04.605Z,23.30
2019-05-03T14:39:30.701Z,23.30
2019-05-03T14:41:56.772Z,23.30
2019-05-03T14:44:25.070Z,23.30
2019-05-03T14:46:50.701Z,23.30
2019-05-03T14:49:16.644Z,23.20
2019-05-03T14:51:42.591Z,23.20
2019-05-03T14:54:09.396Z,23.20
2019-05-03T14:56:37.338Z,23.20
2019-05-03T14:59:21.498Z,23.20
2019-05-03T15:01:52.319Z,23.30
2019-05-03T15:04:18.253Z,23.30
2019-05-03T15:06:46.029Z,23.20
2019-05-03T15:09:12.056Z,23.20
2019-05-03T15:11:38.035Z,23.20
2019-05-03T15:14:05.627Z,23.20
2019-05-03T15:16:31.776Z,23.20
2019-05-03T15:18:57.735Z,23.20
2019-05-03T15:21:25.219Z,23.20
2019-05-03T15:23:51.253Z,23.20
2019-05-03T15:26:17.200Z,23.30
2019-05-03T15:28:44.886Z,23.20
2019-05-03T15:31:11.019Z,23.20
2019-05-03T15:33:36.969Z,23.30
2019-05-03T15:36:04.687Z,23.30
2019-05-03T15:38:30.780Z,23.30
2019-05-03T15:40:56.713Z,23.20
2019-05-03T15:43:28.931Z,23.30
2019-05-03T15:46:02.597Z,23.30
2019-05-03T15:48:30.474Z,23.20
2019-05-03T15:50:56.505Z,23.20
2019-05-03T15:53:24.529Z,23.20
2019-05-03T15:55:50.302Z,23.20
2019-05-03T15:58:16.269Z,23.30
2019-05-03T16:00:44.522Z,23.20
2019-05-03T16:03:11.254Z,23.20
2019-05-03T16:05:37.462Z,23.10
2019-05-03T16:08:04.593Z,23.10
2019-05-03T16:10:30.713Z,23.10
2019-05-03T16:12:56.776Z,23.10
2019-05-03T16:15:24.442Z,23.10
2019-05-03T16:17:50.593Z,23.10
2019-05-03T16:20:16.565Z,23.10
2019-05-03T16:22:42.542Z,23.10
2019-05-03T16:25:08.992Z,23.10
2019-05-03T16:27:36.874Z,23.10
2019-05-03T16:30:04.717Z,23.20
2019-05-03T16:32:30.717Z,23.20
2019-05-03T16:34:56.673Z,23.20
2019-05-03T16:37:22.636Z,23.10
2019-05-03T16:39:48.612Z,23.10
2019-05-03T16:42:15.469Z,23.10
2019-05-03T16:44:41.553Z,23.20
2019-05-03T16:47:07.600Z,23.10
2019-05-03T16:49:35.187Z,23.20
2019-05-03T16:52:01.290Z,23.20
2019-05-03T16:54:27.244Z,23.20
2019-05-03T16:56:54.927Z,23.20
2019-05-03T16:59:21.072Z,23.20
2019-05-03T17:01:47.086Z,23.20
2019-05-03T17:04:29.908Z,23.20
2019-05-03T17:06:57.872Z,23.20
2019-05-03T17:09:40.861Z,23.10
2019-05-03T17:12:09.901Z,23.10
2019-05-03T17:14:35.946Z,23.10
2019-05-03T17:17:01.919Z,23.20
2019-05-03T17:19:27.991Z,23.20
2019-05-03T17:21:54.774Z,23.20
2019-05-03T17:24:20.833Z,23.10
2019-05-03T17:26:46.774Z,23.10
2019-05-03T17:29:12.750Z,23.20
2019-05-03T17:31:38.716Z,23.10
2019-05-03T17:34:05.551Z,23.10
2019-05-03T17:36:31.646Z,23.10
2019-05-03T17:38:59.538Z,23.10
2019-05-03T17:41:34.759Z,23.20
2019-05-03T17:44:02.797Z,23.20
2019-05-03T17:46:28.778Z,23.20
2019-05-03T17:48:54.819Z,23.20
2019-05-03T17:51:39.040Z,23.20
2019-05-03T17:54:25.130Z,23.20
2019-05-03T17:56:55.698Z,23.20
2019-05-03T17:59:24.417Z,23.20
2019-05-03T18:02:09.110Z,23.10
2019-05-03T18:04:54.962Z,23.10
2019-05-03T18:07:37.933Z,23.20
2019-05-03T18:10:04.815Z,23.10
2019-05-03T18:12:30.854Z,23.10
2019-05-03T18:14:58.718Z,23.10
2019-05-03T18:17:24.870Z,23.10
2019-05-03T18:19:50.931Z,23.10
2019-05-03T18:22:16.885Z,23.10
2019-05-03T18:24:42.870Z,23.10
2019-05-03T18:27:09.080Z,23.10
2019-05-03T18:29:35.119Z,23.10
2019-05-03T18:32:01.152Z,23.10
2019-05-03T18:34:27.130Z,23.10
2019-05-03T18:36:53.198Z,23.10
2019-05-03T18:39:19.183Z,23.10
2019-05-03T18:41:45.314Z,23.10
2019-05-03T18:44:14.790Z,23.10
2019-05-03T18:46:51.404Z,23.10
2019-05-03T18:49:17.531Z,23.10
2019-05-03T18:51:44.746Z,23.10
2019-05-03T18:54:10.818Z,23.20
2019-05-03T18:56:36.841Z,23.20
2019-05-03T18:59:04.952Z,23.20
2019-05-03T19:01:30.793Z,23.20
2019-05-03T19:03:58.687Z,23.30
2019-05-03T19:06:24.641Z,23.30
2019-05-03T19:09:08.750Z,23.30
2019-05-03T19:11:48.452Z,23.30
2019-05-03T19:14:22.341Z,23.30
2019-05-03T19:16:59.211Z,23.30
2019-05-03T19:19:27.069Z,23.20
2019-05-03T19:21:53.066Z,23.30
2019-05-03T19:24:19.193Z,23.30
2019-05-03T19:26:45.199Z,23.30
2019-05-03T19:29:11.229Z,23.30
2019-05-03T19:31:37.406Z,23.30
2019-05-03T19:34:03.371Z,23.30
2019-05-03T19:36:29.460Z,23.30
2019-05-03T19:38:55.464Z,23.30
2019-05-03T19:41:21.498Z,23.40
2019-05-03T19:43:47.459Z,23.30
2019-05-03T19:46:13.401Z,23.40
2019-05-03T19:48:39.366Z,23.30
2019-05-03T19:51:05.848Z,23.30
2019-05-03T19:53:33.911Z,23.30
2019-05-03T19:56:00.057Z,23.30
2019-05-03T19:58:26.008Z,23.30
2019-05-03T20:00:54.905Z,23.40
2019-05-03T20:03:29.305Z,23.40
2019-05-03T20:05:59.716Z,23.40
2019-05-03T20:08:27.628Z,23.40
2019-05-03T20:11:14.625Z,23.40
2019-05-03T20:13:40.443Z,23.40
2019-05-03T20:16:06.519Z,23.40
2019-05-03T20:18:32.562Z,23.40
2019-05-03T20:20:58.549Z,23.40
2019-05-03T20:23:25.119Z,23.40
2019-05-03T20:25:51.225Z,23.40
2019-05-03T20:28:17.181Z,23.40
2019-05-03T20:30:45.171Z,23.40
2019-05-03T20:33:11.027Z,23.30
2019-05-03T20:35:36.983Z,23.30
2019-05-03T20:38:04.468Z,23.30
2019-05-03T20:40:30.499Z,23.30
2019-05-03T20:43:01.265Z,23.30
2019-05-03T20:45:35.409Z,23.30
2019-05-03T20:48:02.412Z,23.30
2019-05-03T20:50:28.382Z,23.30
2019-05-03T20:52:54.973Z,23.20
2019-05-03T20:55:21.097Z,23.20
2019-05-03T20:57:47.061Z,23.30
2019-05-03T21:00:14.841Z,23.20
2019-05-03T21:02:50.689Z,23.20
2019-05-03T21:05:08.846Z,23.20
2019-05-03T21:07:35.208Z,23.20
2019-05-03T21:10:01.256Z,23.20
2019-05-03T21:12:31.383Z,23.20
2019-05-03T21:14:55.831Z,23.20
2019-05-03T21:17:39.952Z,23.20
2019-05-03T21:20:22.895Z,23.20
2019-05-03T21:22:48.853Z,23.10
2019-05-03T21:25:19.273Z,23.10
2019-05-03T21:27:45.306Z,23.10
2019-05-03T21:30:11.274Z,23.10
2019-05-03T21:32:37.243Z,23.10
2019-05-03T21:35:03.191Z,23.10
2019-05-03T21:37:30.948Z,23.10
2019-05-03T21:39:57.007Z,23.10
2019-05-03T21:42:23.099Z,23.10
2019-05-03T21:44:49.074Z,23.10
2019-05-03T21:47:25.792Z,23.10
2019-05-03T21:49:53.320Z,23.10
2019-05-03T21:52:19.316Z,23.10
2019-05-03T21:54:45.287Z,23.00
2019-05-03T21:57:11.337Z,23.10
2019-05-03T21:59:37.294Z,23.10
2019-05-03T22:02:05.024Z,23.10
2019-05-03T22:04:31.107Z,23.00
2019-05-03T22:06:57.085Z,23.00
2019-05-03T22:09:23.144Z,23.00
2019-05-03T22:11:51.961Z,23.00
2019-05-03T22:14:21.684Z,23.00
2019-05-03T22:16:52.421Z,23.00
2019-05-03T22:19:19.532Z,23.00
2019-05-03T22:21:55.168Z,23.00
2019-05-03T22:24:32.034Z,23.00
2019-05-03T22:27:04.890Z,23.00
2019-05-03T22:29:30.397Z,23.00
2019-05-03T22:31:56.429Z,22.90
2019-05-03T22:34:22.396Z,23.00
2019-05-03T22:36:48.336Z,23.00
2019-05-03T22:39:15.809Z,22.90
2019-05-03T22:41:41.833Z,22.90
2019-05-03T22:44:07.809Z,22.90
2019-05-03T22:46:33.792Z,22.90
2019-05-03T22:48:59.724Z,22.90
2019-05-03T22:51:25.694Z,22.90
2019-05-03T22:53:51.644Z,22.90
2019-05-03T22:56:17.616Z,22.90
2019-05-03T22:58:45.628Z,22.90
2019-05-03T23:01:11.412Z,22.90
2019-05-03T23:03:44.835Z,22.90
2019-05-03T23:06:20.397Z,22.90
2019-05-03T23:08:39.066Z,22.90
2019-05-03T23:11:05.292Z,22.90
2019-05-03T23:13:31.354Z,22.90
2019-05-03T23:15:57.319Z,22.90
2019-05-03T23:18:24.639Z,22.90
2019-05-03T23:20:55.352Z,22.80
2019-05-03T23:23:39.768Z,22.80
2019-05-03T23:26:05.705Z,22.90
2019-05-03T23:28:31.682Z,22.90
2019-05-03T23:30:57.717Z,22.80
2019-05-03T23:33:25.215Z,22.80
2019-05-03T23:35:51.329Z,22.80
2019-05-03T23:38:17.300Z,22.80
2019-05-03T23:40:44.755Z,22.80
2019-05-03T23:43:10.826Z,22.80
2019-05-03T23:45:36.875Z,22.80
2019-05-03T23:48:04.569Z,22.80
2019-05-03T23:50:30.703Z,22.80
2019-05-03T23:52:56.763Z,22.80
2019-05-03T23:55:27.646Z,22.80
2019-05-03T23:57:55.292Z,22.80
